Time;durP1;ratioP1;P1;durP2;ratioP2;P2;SDS_P1;SDS_P2;PMS_P1;PMS_P2;Temp;Humidity;BMP_temperature;BMP_pressure;BME280_temperature;BME280_humidity;BME280_pressure;Samples;Min_cycle;Max_cycle;Signal;HPM_P1;HPM_P2
2021/10/12 00:01:14;;;;;;;5.20;1.13;;;9.80;99.90;;;;;;4992947;28;20237;-61
2021/10/12 00:03:44;;;;;;;7.87;1.40;;;9.80;99.90;;;;;;4998882;28;21692;-62
2021/10/12 00:06:12;;;;;;;7.37;1.40;;;9.90;99.90;;;;;;4987361;28;20268;-62
2021/10/12 00:08:41;;;;;;;5.90;1.37;;;9.80;99.90;;;;;;4982759;28;20262;-62
2021/10/12 00:11:09;;;;;;;8.90;1.90;;;9.80;99.90;;;;;;4995836;28;20551;-61
2021/10/12 00:13:37;;;;;;;4.47;1.10;;;9.80;99.90;;;;;;4989515;28;20247;-62
2021/10/12 00:16:08;;;;;;;4.90;1.27;;;9.80;99.90;;;;;;4988444;28;20704;-61
2021/10/12 00:18:36;;;;;;;5.70;1.47;;;9.80;99.90;;;;;;4991463;28;20342;-62
2021/10/12 00:21:05;;;;;;;6.47;1.53;;;9.80;99.90;;;;;;4993674;28;20725;-61
2021/10/12 00:23:34;;;;;;;7.90;1.57;;;9.80;99.90;;;;;;4998650;28;20293;-62
2021/10/12 00:26:03;;;;;;;5.70;1.30;;;9.80;99.90;;;;;;4992697;28;20231;-63
2021/10/12 00:28:31;;;;;;;6.20;1.43;;;9.80;99.90;;;;;;4991362;28;20266;-61
2021/10/12 00:31:00;;;;;;;5.27;1.40;;;9.70;99.90;;;;;;4993341;28;20710;-62
2021/10/12 00:33:31;;;;;;;4.90;1.47;;;9.70;99.90;;;;;;4994745;28;20235;-62
2021/10/12 00:35:59;;;;;;;7.93;1.60;;;9.80;99.90;;;;;;4988449;28;20297;-61
2021/10/12 00:38:28;;;;;;;5.13;1.70;;;9.70;99.90;;;;;;4991720;28;20239;-61
2021/10/12 00:40:56;;;;;;;7.23;1.90;;;9.70;99.90;;;;;;4990083;28;20239;-62
2021/10/12 00:43:27;;;;;;;6.67;2.17;;;9.80;99.90;;;;;;4992236;28;20265;-62
2021/10/12 00:45:57;;;;;;;6.53;1.90;;;9.80;99.90;;;;;;4993254;28;20231;-62
2021/10/12 00:48:26;;;;;;;5.27;1.77;;;9.80;99.90;;;;;;4999731;28;20326;-61
2021/10/12 00:50:54;;;;;;;6.73;1.80;;;9.80;99.90;;;;;;5003409;28;20324;-62
2021/10/12 00:53:22;;;;;;;6.73;1.60;;;9.70;99.90;;;;;;4990826;28;20231;-62
2021/10/12 00:55:50;;;;;;;5.70;1.50;;;9.70;99.90;;;;;;4989238;28;20322;-60
2021/10/12 00:58:19;;;;;;;6.53;1.67;;;9.80;99.90;;;;;;4991456;28;20239;-61
2021/10/12 01:00:50;;;;;;;3.20;1.50;;;9.80;99.90;;;;;;4997912;28;20234;-61
2021/10/12 01:03:19;;;;;;;10.47;2.00;;;9.80;99.90;;;;;;4993592;28;20241;-61
2021/10/12 01:05:47;;;;;;;5.37;1.57;;;9.80;99.90;;;;;;4997203;28;20239;-62
2021/10/12 01:08:15;;;;;;;4.10;1.50;;;9.90;99.90;;;;;;4998029;28;20789;-62
2021/10/12 01:10:43;;;;;;;5.90;1.73;;;9.90;99.90;;;;;;4989624;28;20247;-62
2021/10/12 01:13:12;;;;;;;9.43;2.13;;;9.80;99.90;;;;;;4990922;28;20679;-62
2021/10/12 01:15:40;;;;;;;5.37;1.60;;;9.80;99.90;;;;;;5003113;28;20736;-63
2021/10/12 01:18:13;;;;;;;4.27;1.80;;;9.80;99.90;;;;;;4995406;28;20226;-62
2021/10/12 01:20:42;;;;;;;5.50;1.70;;;9.80;99.90;;;;;;4993228;28;20231;-62
2021/10/12 01:23:12;;;;;;;4.77;1.40;;;9.90;99.90;;;;;;4993759;28;20706;-61
2021/10/12 01:25:41;;;;;;;2.53;1.20;;;9.90;99.90;;;;;;4999352;28;20653;-62
2021/10/12 01:28:09;;;;;;;4.17;1.57;;;9.90;99.90;;;;;;4996935;28;20737;-62
2021/10/12 01:30:38;;;;;;;3.13;1.23;;;9.90;99.90;;;;;;4992698;28;20714;-63
2021/10/12 01:33:08;;;;;;;4.97;1.40;;;9.90;99.90;;;;;;4996127;28;20269;-62
2021/10/12 01:35:39;;;;;;;4.10;1.20;;;9.90;99.90;;;;;;4995785;28;20572;-61
2021/10/12 01:38:07;;;;;;;2.20;1.10;;;9.80;99.90;;;;;;4995492;28;20317;-62
2021/10/12 01:40:37;;;;;;;1.27;1.00;;;9.80;99.90;;;;;;4993383;28;20237;-62
2021/10/12 01:43:05;;;;;;;3.37;1.10;;;9.70;99.90;;;;;;4992355;28;20593;-62
2021/10/12 01:45:37;;;;;;;2.17;1.20;;;9.80;99.90;;;;;;4996004;28;20289;-62
2021/10/12 01:48:06;;;;;;;1.80;1.00;;;9.80;99.90;;;;;;4993765;28;20324;-62
2021/10/12 01:50:34;;;;;;;3.03;0.87;;;9.80;99.90;;;;;;4998063;28;20238;-61
2021/10/12 01:53:02;;;;;;;2.80;0.80;;;9.90;99.90;;;;;;4993651;28;20242;-61
2021/10/12 01:55:30;;;;;;;1.87;0.70;;;10.00;99.90;;;;;;4991558;28;20226;-62
2021/10/12 01:57:59;;;;;;;2.23;0.70;;;9.90;99.90;;;;;;4996485;28;20330;-64
2021/10/12 02:00:28;;;;;;;3.23;1.03;;;10.00;99.90;;;;;;4993424;28;20308;-62
2021/10/12 02:02:56;;;;;;;3.93;1.30;;;10.00;99.90;;;;;;4996600;28;20252;-62
2021/10/12 02:05:24;;;;;;;2.37;1.10;;;10.00;99.90;;;;;;4992578;28;20285;-62
2021/10/12 02:07:52;;;;;;;1.93;0.90;;;10.00;99.90;;;;;;5006881;28;20659;-62
2021/10/12 02:10:22;;;;;;;1.63;0.97;;;10.00;99.90;;;;;;4997741;28;20623;-62
2021/10/12 02:12:51;;;;;;;2.37;1.00;;;10.00;99.90;;;;;;4993706;28;20329;-61
2021/10/12 02:15:20;;;;;;;2.70;1.10;;;10.10;99.90;;;;;;4994410;28;20267;-63
2021/10/12 02:17:48;;;;;;;3.50;0.97;;;10.10;99.90;;;;;;4994225;28;20230;-61
2021/10/12 02:20:16;;;;;;;2.93;1.13;;;10.00;99.90;;;;;;4997930;28;20278;-61
2021/10/12 02:22:44;;;;;;;2.20;1.03;;;10.10;99.90;;;;;;4990292;28;20243;-61
2021/10/12 02:25:13;;;;;;;3.63;1.40;;;10.10;99.90;;;;;;4989938;28;20295;-61
2021/10/12 02:27:41;;;;;;;3.27;1.27;;;10.20;99.90;;;;;;4989914;28;20642;-61
2021/10/12 02:30:10;;;;;;;1.53;1.10;;;10.20;99.90;;;;;;4996382;28;20788;-63
2021/10/12 02:32:40;;;;;;;2.43;1.07;;;10.10;99.90;;;;;;4993199;28;20230;-62
2021/10/12 02:35:08;;;;;;;2.17;1.20;;;10.10;99.90;;;;;;4989315;28;20246;-62
2021/10/12 02:37:37;;;;;;;2.07;1.00;;;10.10;99.90;;;;;;4997927;28;20261;-62
2021/10/12 02:40:06;;;;;;;4.43;1.47;;;10.20;99.90;;;;;;5000667;28;20263;-62
2021/10/12 02:42:34;;;;;;;1.93;1.30;;;10.30;99.90;;;;;;4996062;28;20241;-61
2021/10/12 02:45:02;;;;;;;3.77;1.20;;;10.20;99.90;;;;;;4993148;28;20742;-62
2021/10/12 02:47:33;;;;;;;2.57;1.30;;;10.20;99.90;;;;;;4981793;28;20232;-61
2021/10/12 02:50:03;;;;;;;2.53;1.40;;;10.20;99.90;;;;;;4986275;28;20235;-62
2021/10/12 02:52:31;;;;;;;2.30;1.20;;;10.20;99.90;;;;;;4980761;28;20241;-61
2021/10/12 02:54:59;;;;;;;3.50;1.10;;;10.20;99.90;;;;;;4994503;28;20265;-62
2021/10/12 02:57:27;;;;;;;2.90;1.00;;;10.20;99.90;;;;;;4994730;28;20717;-61
2021/10/12 02:59:56;;;;;;;2.90;1.30;;;10.10;99.90;;;;;;4991737;28;20600;-62
2021/10/12 03:02:24;;;;;;;2.67;1.00;;;10.10;99.90;;;;;;4990225;28;20245;-63
2021/10/12 03:04:52;;;;;;;2.73;1.20;;;10.10;99.90;;;;;;4995355;28;20247;-62
2021/10/12 03:07:22;;;;;;;2.73;1.37;;;10.10;99.90;;;;;;4988071;28;20242;-62
2021/10/12 03:09:50;;;;;;;2.70;1.10;;;10.20;99.90;;;;;;4991058;28;20240;-61
2021/10/12 03:12:18;;;;;;;4.30;1.67;;;10.20;99.90;;;;;;4975799;28;20247;-62
2021/10/12 03:14:46;;;;;;;3.40;1.20;;;10.10;99.90;;;;;;4993860;28;20685;-61
2021/10/12 03:17:14;;;;;;;1.90;0.97;;;10.20;99.90;;;;;;4999710;28;20600;-62
2021/10/12 03:19:42;;;;;;;1.63;0.73;;;10.20;99.90;;;;;;4995946;28;20236;-61
2021/10/12 03:22:11;;;;;;;3.43;1.00;;;10.20;99.90;;;;;;4997421;28;20235;-62
2021/10/12 03:24:41;;;;;;;4.10;1.17;;;10.10;99.90;;;;;;4993202;28;20261;-62
2021/10/12 03:27:11;;;;;;;1.70;0.83;;;10.10;99.90;;;;;;4987731;28;20259;-62
2021/10/12 03:29:40;;;;;;;3.00;0.90;;;10.10;99.90;;;;;;4992271;28;20334;-62
2021/10/12 03:32:08;;;;;;;1.23;0.70;;;10.00;99.90;;;;;;4993425;28;20301;-62
2021/10/12 03:34:37;;;;;;;3.37;0.90;;;10.10;99.90;;;;;;4991872;28;20235;-62
2021/10/12 03:37:05;;;;;;;2.37;0.90;;;10.10;99.90;;;;;;5001657;28;20234;-61
2021/10/12 03:39:33;;;;;;;1.97;1.10;;;10.10;99.90;;;;;;4993127;28;20242;-62
2021/10/12 03:42:03;;;;;;;3.33;0.93;;;10.10;99.90;;;;;;4993881;28;20321;-62
2021/10/12 03:44:32;;;;;;;1.60;0.90;;;10.10;99.90;;;;;;4996739;28;20282;-61
2021/10/12 03:47:00;;;;;;;2.90;0.97;;;10.00;99.90;;;;;;5000382;28;20733;-62
2021/10/12 03:49:28;;;;;;;1.80;0.77;;;10.00;99.90;;;;;;4990574;28;20227;-62
2021/10/12 03:51:56;;;;;;;2.13;1.30;;;10.00;99.90;;;;;;4994697;28;20371;-61
2021/10/12 03:54:24;;;;;;;2.83;1.10;;;10.10;99.90;;;;;;4995803;28;20632;-61
2021/10/12 03:56:52;;;;;;;3.60;1.33;;;10.10;99.90;;;;;;4993990;28;20756;-62
2021/10/12 03:59:22;;;;;;;3.13;1.40;;;10.20;99.90;;;;;;4991825;28;20266;-62
2021/10/12 04:01:50;;;;;;;5.00;1.47;;;10.20;99.90;;;;;;4988811;28;20234;-62
2021/10/12 04:04:18;;;;;;;3.17;1.40;;;10.10;99.90;;;;;;4995903;28;20253;-62
2021/10/12 04:06:46;;;;;;;3.53;1.57;;;10.10;99.90;;;;;;4994283;28;20235;-61
2021/10/12 04:09:15;;;;;;;2.30;1.60;;;10.10;99.90;;;;;;4989568;28;20243;-62
2021/10/12 04:11:43;;;;;;;2.57;1.47;;;10.10;99.90;;;;;;4994685;28;20326;-62
2021/10/12 04:14:11;;;;;;;2.67;1.70;;;10.10;99.90;;;;;;4996965;28;20326;-62
2021/10/12 04:16:44;;;;;;;3.67;1.80;;;10.00;99.90;;;;;;4999632;28;20243;-62
2021/10/12 04:19:12;;;;;;;3.30;1.67;;;10.00;99.90;;;;;;4984484;28;20241;-61
2021/10/12 04:21:41;;;;;;;1.93;1.43;;;10.10;99.90;;;;;;4987581;28;20331;-63
2021/10/12 04:24:09;;;;;;;2.87;1.50;;;10.00;99.90;;;;;;4992633;28;20242;-61
2021/10/12 04:26:38;;;;;;;3.60;1.50;;;10.00;99.90;;;;;;4989861;28;20572;-61
2021/10/12 04:29:07;;;;;;;4.03;1.80;;;10.00;99.90;;;;;;4998030;28;20331;-61
2021/10/12 04:31:36;;;;;;;3.00;1.63;;;9.90;99.90;;;;;;4989797;28;20237;-63
2021/10/12 04:34:09;;;;;;;3.20;1.60;;;9.90;99.90;;;;;;4995680;28;20235;-62
2021/10/12 04:36:37;;;;;;;3.30;1.80;;;9.80;99.90;;;;;;4988957;28;20257;-62
2021/10/12 04:39:07;;;;;;;4.23;2.10;;;9.80;99.90;;;;;;4989987;28;20658;-61
2021/10/12 04:41:35;;;;;;;3.63;1.87;;;9.80;99.90;;;;;;4995937;28;20317;-62
2021/10/12 04:44:06;;;;;;;4.67;2.10;;;9.80;99.90;;;;;;4990036;28;20749;-61
2021/10/12 04:46:34;;;;;;;2.07;1.77;;;9.80;99.90;;;;;;4989426;28;20270;-62
2021/10/12 04:49:02;;;;;;;4.73;1.90;;;9.80;99.90;;;;;;4990412;28;20246;-62
2021/10/12 04:51:33;;;;;;;2.87;1.60;;;9.90;99.90;;;;;;4988788;28;20237;-62
2021/10/12 04:54:02;;;;;;;4.53;1.90;;;9.80;99.90;;;;;;4990824;28;20688;-62
2021/10/12 04:56:30;;;;;;;3.90;1.63;;;9.80;99.90;;;;;;4992272;28;20598;-62
2021/10/12 04:58:59;;;;;;;5.03;1.90;;;9.70;99.90;;;;;;4984711;28;20318;-62
2021/10/12 05:01:27;;;;;;;10.13;3.10;;;9.80;99.90;;;;;;4987338;28;20308;-62
2021/10/12 05:03:56;;;;;;;3.13;1.63;;;9.80;99.90;;;;;;4990734;28;20824;-61
2021/10/12 05:06:24;;;;;;;4.07;1.70;;;9.80;99.90;;;;;;4995689;28;20320;-62
2021/10/12 05:08:54;;;;;;;7.40;2.10;;;9.70;99.90;;;;;;4991519;28;20247;-61
2021/10/12 05:11:22;;;;;;;3.67;1.53;;;9.70;99.90;;;;;;4982927;28;20249;-61
2021/10/12 05:13:51;;;;;;;3.00;1.80;;;9.60;99.90;;;;;;4984485;28;20325;-63
2021/10/12 05:16:21;;;;;;;2.73;1.50;;;9.60;99.90;;;;;;4982795;28;20851;-63
2021/10/12 05:18:53;;;;;;;3.80;1.70;;;9.60;99.90;;;;;;4980065;28;20240;-62
2021/10/12 05:21:21;;;;;;;2.47;1.93;;;9.60;99.90;;;;;;4983374;28;20253;-62
2021/10/12 05:23:50;;;;;;;2.53;1.40;;;9.70;99.90;;;;;;4989791;28;20242;-63
2021/10/12 05:26:20;;;;;;;2.43;1.40;;;9.70;99.90;;;;;;4990499;28;20330;-62
2021/10/12 05:28:51;;;;;;;4.20;1.57;;;9.70;99.90;;;;;;4993191;28;20242;-61
2021/10/12 05:31:19;;;;;;;3.27;1.50;;;9.70;99.90;;;;;;4988794;28;20337;-61
2021/10/12 05:33:48;;;;;;;4.03;1.90;;;9.70;99.90;;;;;;4985565;28;20732;-63
2021/10/12 05:36:16;;;;;;;3.17;1.90;;;9.80;99.90;;;;;;4985062;28;20541;-61
2021/10/12 05:38:45;;;;;;;9.47;3.13;;;9.70;99.90;;;;;;4997890;28;20770;-62
2021/10/12 05:41:14;;;;;;;2.83;1.73;;;9.70;99.90;;;;;;4992615;28;20254;-61
2021/10/12 05:43:43;;;;;;;2.10;1.93;;;9.70;99.90;;;;;;4993194;28;20239;-61
2021/10/12 05:46:11;;;;;;;3.17;1.67;;;9.60;99.90;;;;;;4992157;28;20275;-62
2021/10/12 05:48:39;;;;;;;4.60;2.60;;;9.60;99.90;;;;;;4992496;28;20237;-62
2021/10/12 05:51:09;;;;;;;4.30;2.43;;;9.70;99.90;;;;;;4987467;28;20245;-62
2021/10/12 05:53:45;;;;;;;5.37;2.70;;;9.60;99.90;;;;;;4994989;28;20246;-62
2021/10/12 05:56:17;;;;;;;2.10;1.90;;;9.50;99.90;;;;;;4992004;28;20263;-62
2021/10/12 05:58:49;;;;;;;5.07;2.57;;;9.50;99.90;;;;;;4998358;28;20329;-61
2021/10/12 06:01:17;;;;;;;3.70;2.40;;;9.60;99.90;;;;;;4990576;28;20249;-62
2021/10/12 06:03:46;;;;;;;3.73;2.57;;;9.60;99.90;;;;;;4997562;28;21568;-61
2021/10/12 06:06:14;;;;;;;5.30;2.40;;;9.60;99.90;;;;;;4987792;28;20937;-62
2021/10/12 06:08:43;;;;;;;4.40;2.70;;;9.60;99.90;;;;;;4997843;28;20238;-61
2021/10/12 06:11:12;;;;;;;3.47;2.57;;;9.60;99.90;;;;;;4989689;28;20237;-61
2021/10/12 06:13:41;;;;;;;5.07;2.63;;;9.60;99.90;;;;;;4994354;28;20235;-61
2021/10/12 06:16:10;;;;;;;3.10;2.80;;;9.50;99.90;;;;;;4994887;28;20238;-61
2021/10/12 06:18:38;;;;;;;5.27;2.57;;;9.40;99.90;;;;;;4990901;28;20247;-62
2021/10/12 06:21:07;;;;;;;2.80;2.40;;;9.40;99.90;;;;;;4995185;28;20245;-61
2021/10/12 06:23:35;;;;;;;3.87;2.37;;;9.40;99.90;;;;;;4988151;28;20235;-62
2021/10/12 06:26:03;;;;;;;5.33;2.67;;;9.40;99.90;;;;;;4997305;28;20241;-62
2021/10/12 06:28:31;;;;;;;4.67;3.00;;;9.50;99.90;;;;;;4998299;28;20226;-61
2021/10/12 06:30:59;;;;;;;5.20;2.80;;;9.50;99.90;;;;;;4996948;28;20593;-61
2021/10/12 06:33:29;;;;;;;3.23;2.20;;;9.50;99.90;;;;;;4986685;28;20250;-61
2021/10/12 06:35:57;;;;;;;3.90;2.50;;;9.60;99.90;;;;;;4990862;28;20513;-62
2021/10/12 06:38:25;;;;;;;4.40;2.40;;;9.60;99.90;;;;;;4996077;28;20255;-61
2021/10/12 06:40:53;;;;;;;3.80;2.40;;;9.70;99.90;;;;;;4997313;28;20693;-60
2021/10/12 06:43:21;;;;;;;3.70;2.53;;;9.70;99.90;;;;;;4964526;28;20294;-61
2021/10/12 06:45:49;;;;;;;3.67;2.40;;;9.70;99.90;;;;;;4995761;28;20631;-61
2021/10/12 06:48:18;;;;;;;4.63;3.00;;;9.80;99.90;;;;;;4991205;28;20335;-61
2021/10/12 06:50:47;;;;;;;2.70;2.43;;;9.80;99.90;;;;;;4991433;28;20830;-61
2021/10/12 06:53:35;;;;;;;4.80;2.70;;;9.80;99.90;;;;;;4994201;28;20621;-61
2021/10/12 06:56:04;;;;;;;4.67;2.57;;;9.90;99.90;;;;;;4990980;28;20273;-63
2021/10/12 06:58:32;;;;;;;4.17;2.97;;;10.00;99.90;;;;;;4992379;28;20576;-62
2021/10/12 07:01:19;;;;;;;3.43;2.97;;;10.00;99.90;;;;;;4986438;28;20247;-62
2021/10/12 07:03:47;;;;;;;6.20;2.90;;;10.20;99.90;;;;;;4981499;28;20722;-61
2021/10/12 07:06:20;;;;;;;3.60;2.93;;;10.20;99.90;;;;;;4984492;28;20646;-60
2021/10/12 07:08:53;;;;;;;3.70;3.30;;;10.30;99.90;;;;;;4986752;28;20242;-61
2021/10/12 07:11:21;;;;;;;4.33;2.60;;;10.40;99.90;;;;;;4985945;28;20250;-63
2021/10/12 07:13:49;;;;;;;6.33;3.07;;;10.50;99.90;;;;;;4981178;28;20231;-61
2021/10/12 07:16:21;;;;;;;4.33;2.80;;;10.50;99.90;;;;;;4994269;28;20293;-61
2021/10/12 07:18:50;;;;;;;6.93;2.53;;;10.60;99.90;;;;;;4990254;28;20466;-60
2021/10/12 07:21:20;;;;;;;4.30;2.50;;;10.70;99.90;;;;;;4987516;28;20252;-62
2021/10/12 07:23:48;;;;;;;6.53;2.33;;;10.80;99.90;;;;;;4985876;28;20267;-62
2021/10/12 07:26:16;;;;;;;4.03;2.00;;;11.00;99.90;;;;;;4993027;28;20560;-62
2021/10/12 07:28:45;;;;;;;2.93;1.90;;;10.90;99.90;;;;;;4989294;28;20244;-61
2021/10/12 07:31:13;;;;;;;4.00;1.60;;;10.80;99.90;;;;;;4991275;28;20633;-63
2021/10/12 07:33:41;;;;;;;5.37;1.60;;;10.70;99.90;;;;;;4990411;28;20789;-62
2021/10/12 07:36:09;;;;;;;5.80;1.70;;;10.90;99.90;;;;;;4990470;28;20262;-62
2021/10/12 07:38:39;;;;;;;3.83;1.50;;;11.10;99.90;;;;;;4993089;28;20273;-62
2021/10/12 07:41:08;;;;;;;6.67;1.90;;;11.30;99.90;;;;;;4997024;28;20646;-62
2021/10/12 07:43:36;;;;;;;5.77;1.50;;;11.50;99.90;;;;;;5001855;28;20725;-61
2021/10/12 07:46:05;;;;;;;5.83;1.40;;;11.60;99.90;;;;;;4990551;28;20249;-62
2021/10/12 07:48:33;;;;;;;3.43;1.10;;;11.70;99.90;;;;;;4989585;28;20297;-61
2021/10/12 07:51:06;;;;;;;8.37;1.23;;;11.80;99.90;;;;;;4999376;28;20295;-62
2021/10/12 07:53:36;;;;;;;4.27;1.30;;;11.80;99.90;;;;;;4999423;28;20622;-63
2021/10/12 07:56:10;;;;;;;3.27;1.10;;;12.00;99.90;;;;;;4989217;28;20267;-62
2021/10/12 07:58:38;;;;;;;5.57;1.27;;;12.20;99.90;;;;;;4990980;28;20251;-62
2021/10/12 08:01:06;;;;;;;6.30;1.90;;;12.30;99.90;;;;;;4992145;28;20461;-63
2021/10/12 08:03:35;;;;;;;4.27;1.10;;;12.30;99.90;;;;;;4992021;28;20332;-62
2021/10/12 08:06:03;;;;;;;2.23;0.90;;;12.10;99.90;;;;;;4987148;28;20240;-63
2021/10/12 08:08:31;;;;;;;2.47;0.90;;;12.20;99.90;;;;;;4988649;28;20670;-61
2021/10/12 08:10:59;;;;;;;4.67;0.80;;;12.40;99.90;;;;;;4984763;28;20695;-62
2021/10/12 08:13:29;;;;;;;2.63;1.00;;;12.50;99.90;;;;;;4990459;28;20244;-62
2021/10/12 08:16:05;;;;;;;5.97;1.50;;;12.60;99.90;;;;;;4984773;28;20244;-61
2021/10/12 08:18:36;;;;;;;4.67;1.30;;;12.80;99.90;;;;;;4984630;28;20245;-62
2021/10/12 08:21:06;;;;;;;2.27;0.80;;;13.00;99.90;;;;;;4984632;28;20287;-63
2021/10/12 08:23:37;;;;;;;6.70;1.00;;;13.30;99.90;;;;;;4991747;28;20750;-63
2021/10/12 08:26:05;;;;;;;4.80;1.00;;;13.30;99.90;;;;;;4994472;28;20240;-63
2021/10/12 08:28:34;;;;;;;4.87;1.37;;;13.40;99.90;;;;;;4988922;28;20241;-62
2021/10/12 08:31:03;;;;;;;5.67;1.10;;;13.70;99.90;;;;;;4988407;28;20740;-62
2021/10/12 08:33:31;;;;;;;3.53;1.20;;;13.90;99.90;;;;;;4983313;28;20236;-62
2021/10/12 08:35:59;;;;;;;4.93;1.00;;;14.00;99.90;;;;;;4986110;28;20786;-61
2021/10/12 08:38:52;;;;;;;5.60;1.00;;;14.10;99.90;;;;;;4994018;28;20265;-62
2021/10/12 08:41:27;;;;;;;3.10;1.03;;;14.30;99.90;;;;;;4991915;28;20241;-63
2021/10/12 08:43:57;;;;;;;3.83;1.00;;;14.40;99.90;;;;;;4987219;28;20259;-62
2021/10/12 08:46:27;;;;;;;4.37;1.00;;;14.50;99.90;;;;;;4991379;28;20243;-62
2021/10/12 08:48:57;;;;;;;5.30;1.30;;;14.60;99.90;;;;;;4980855;28;20332;-63
2021/10/12 08:51:26;;;;;;;6.30;1.00;;;14.70;99.90;;;;;;4987775;28;20233;-62
2021/10/12 08:53:54;;;;;;;3.17;1.00;;;14.50;99.90;;;;;;4990453;28;20252;-63
2021/10/12 08:56:22;;;;;;;6.20;1.00;;;14.40;99.90;;;;;;4988511;28;20571;-62
2021/10/12 08:58:50;;;;;;;4.50;0.80;;;14.40;99.90;;;;;;4993500;28;20265;-61
2021/10/12 09:01:20;;;;;;;3.70;1.10;;;14.60;99.90;;;;;;4998695;28;20240;-62
2021/10/12 09:04:01;;;;;;;3.53;1.00;;;14.80;99.90;;;;;;4992673;28;20242;-61
2021/10/12 09:06:31;;;;;;;3.67;0.90;;;15.00;99.90;;;;;;4983081;28;20233;-63
2021/10/12 09:09:17;;;;;;;2.57;0.90;;;15.20;99.90;;;;;;4993572;28;20605;-62
2021/10/12 09:11:45;;;;;;;5.33;0.97;;;15.30;99.90;;;;;;4997503;28;20727;-62
2021/10/12 09:14:14;;;;;;;3.03;0.80;;;15.40;99.90;;;;;;4987570;28;20233;-61
2021/10/12 09:16:45;;;;;;;3.33;0.73;;;15.30;99.90;;;;;;4996556;28;20237;-63
2021/10/12 09:19:15;;;;;;;3.80;1.00;;;15.30;99.90;;;;;;4998610;28;20267;-61
2021/10/12 09:21:46;;;;;;;4.40;1.03;;;15.10;99.90;;;;;;4993255;28;20321;-63
2021/10/12 09:24:16;;;;;;;3.10;1.00;;;15.30;99.90;;;;;;4989125;28;20244;-62
2021/10/12 09:26:45;;;;;;;4.73;0.90;;;15.30;99.90;;;;;;4991166;28;20245;-63
2021/10/12 09:29:24;;;;;;;3.37;0.90;;;15.40;99.90;;;;;;4993019;28;20328;-62
2021/10/12 09:31:56;;;;;;;5.07;1.00;;;15.40;99.90;;;;;;4988891;28;20295;-62
2021/10/12 09:34:28;;;;;;;3.23;1.10;;;15.40;99.90;;;;;;4989631;28;20253;-62
2021/10/12 09:36:56;;;;;;;4.63;0.90;;;15.50;99.90;;;;;;4994390;28;20330;-63
2021/10/12 09:39:31;;;;;;;6.27;0.90;;;15.30;99.90;;;;;;4985503;28;20332;-62
2021/10/12 09:42:01;;;;;;;4.53;0.83;;;14.90;99.90;;;;;;4988204;28;20327;-63
2021/10/12 09:44:33;;;;;;;3.33;0.80;;;14.70;99.90;;;;;;4981825;28;20240;-62
2021/10/12 09:47:14;;;;;;;4.87;1.53;;;15.00;99.90;;;;;;4982156;28;20241;-63
2021/10/12 09:49:43;;;;;;;7.30;0.83;;;15.50;99.90;;;;;;4986310;28;20261;-63
2021/10/12 09:52:13;;;;;;;5.60;0.87;;;15.70;99.90;;;;;;4982414;28;20726;-62
2021/10/12 09:54:48;;;;;;;4.47;0.80;;;15.60;99.90;;;;;;4985164;28;21357;-62
2021/10/12 09:57:18;;;;;;;5.67;1.23;;;15.50;99.90;;;;;;4980922;28;20250;-62
2021/10/12 09:59:46;;;;;;;3.53;0.80;;;15.10;99.90;;;;;;4980442;28;20242;-63
2021/10/12 10:02:18;;;;;;;4.63;0.80;;;14.60;99.90;;;;;;4987450;28;20234;-62
2021/10/12 10:04:47;;;;;;;5.30;1.00;;;14.50;99.90;;;;;;4992318;28;20330;-63
2021/10/12 10:07:18;;;;;;;5.37;0.77;;;14.80;99.90;;;;;;4988394;28;20606;-62
2021/10/12 10:09:48;;;;;;;5.07;1.07;;;15.20;99.90;;;;;;4984820;28;20312;-63
2021/10/12 10:12:16;;;;;;;3.23;1.00;;;15.60;99.90;;;;;;4993305;28;20358;-62
2021/10/12 10:14:44;;;;;;;3.57;0.90;;;15.80;99.90;;;;;;4991678;28;20850;-63
2021/10/12 10:17:14;;;;;;;8.57;1.10;;;16.20;99.90;;;;;;4995712;28;20383;-63
2021/10/12 10:19:46;;;;;;;8.00;1.03;;;16.50;99.90;;;;;;4994237;28;20728;-63
2021/10/12 10:22:40;;;;;;;5.43;1.00;;;16.20;99.90;;;;;;4994302;28;20229;-62
2021/10/12 10:25:26;;;;;;;4.33;1.00;;;16.10;99.90;;;;;;4985515;28;20245;-63
2021/10/12 10:27:55;;;;;;;7.03;1.37;;;16.00;99.90;;;;;;4986189;28;20238;-63
2021/10/12 10:30:30;;;;;;;5.10;1.03;;;16.00;99.90;;;;;;4993414;28;20237;-64
2021/10/12 10:33:02;;;;;;;3.47;0.67;;;15.90;99.90;;;;;;4996287;28;20295;-63
2021/10/12 10:35:41;;;;;;;5.33;1.00;;;16.10;99.90;;;;;;4989181;28;20709;-62
2021/10/12 10:38:44;;;;;;;5.13;1.10;;;16.40;99.90;;;;;;4988323;28;20290;-63
2021/10/12 10:41:27;;;;;;;6.13;1.13;;;16.40;99.90;;;;;;4924102;29;20766;-62
2021/10/12 10:44:00;;;;;;;6.67;1.17;;;16.40;99.90;;;;;;4983459;28;20698;-63
2021/10/12 10:46:43;;;;;;;4.37;0.90;;;16.40;99.90;;;;;;4985682;28;20241;-63
2021/10/12 10:49:14;;;;;;;2.93;0.87;;;16.70;99.90;;;;;;4988670;28;20242;-63
2021/10/12 10:51:52;;;;;;;3.40;0.80;;;16.40;99.90;;;;;;4991078;28;20240;-62
2021/10/12 10:55:03;;;;;;;4.03;1.03;;;15.90;99.90;;;;;;4989571;28;20323;-63
2021/10/12 10:57:32;;;;;;;1.43;0.63;;;16.20;99.90;;;;;;4987428;28;20261;-63
2021/10/12 11:00:25;;;;;;;4.70;0.87;;;16.20;99.90;;;;;;4989534;28;20241;-62
2021/10/12 11:02:55;;;;;;;8.57;0.90;;;16.50;99.90;;;;;;4982208;28;20265;-62
2021/10/12 11:05:38;;;;;;;5.53;0.90;;;16.60;99.90;;;;;;4981852;28;20335;-63
2021/10/12 11:08:22;;;;;;;4.37;0.93;;;16.10;99.90;;;;;;4986583;28;20628;-61
2021/10/12 11:10:56;;;;;;;2.67;0.87;;;16.00;99.90;;;;;;4983174;28;20714;-62
2021/10/12 11:13:30;;;;;;;3.53;1.00;;;16.10;99.90;;;;;;4982678;28;20291;-62
2021/10/12 11:15:59;;;;;;;5.77;0.93;;;16.10;99.90;;;;;;4981951;28;20235;-63
2021/10/12 11:18:28;;;;;;;4.17;0.80;;;16.50;99.90;;;;;;4981928;28;20269;-62
2021/10/12 11:20:58;;;;;;;1.67;0.50;;;16.80;99.90;;;;;;4981687;28;20333;-62
2021/10/12 11:23:32;;;;;;;1.63;0.63;;;17.00;99.90;;;;;;4983071;28;20248;-63
2021/10/12 11:26:07;;;;;;;4.00;0.90;;;17.10;99.90;;;;;;4979356;28;20246;-62
2021/10/12 11:28:36;;;;;;;4.23;0.80;;;17.00;99.90;;;;;;4979624;28;20762;-63
2021/10/12 11:31:07;;;;;;;3.50;0.80;;;16.80;99.90;;;;;;4986204;28;20252;-62
2021/10/12 11:33:38;;;;;;;3.40;1.33;;;16.20;99.90;;;;;;4990642;28;20789;-63
2021/10/12 11:36:09;;;;;;;3.17;0.80;;;16.20;99.90;;;;;;4986987;28;20270;-63
2021/10/12 11:38:40;;;;;;;2.73;0.80;;;16.00;99.90;;;;;;4980410;28;20719;-62
2021/10/12 11:41:17;;;;;;;2.80;0.83;;;16.00;99.90;;;;;;4984196;28;20238;-63
2021/10/12 11:43:46;;;;;;;3.53;0.90;;;16.00;99.90;;;;;;4978324;28;20229;-62
2021/10/12 11:46:24;;;;;;;3.73;0.87;;;16.20;99.90;;;;;;4975530;28;20337;-63
2021/10/12 11:48:58;;;;;;;2.80;0.60;;;16.20;99.90;;;;;;4990825;28;20256;-62
2021/10/12 11:51:29;;;;;;;3.17;0.80;;;16.30;99.90;;;;;;4989349;28;20642;-63
2021/10/12 11:54:00;;;;;;;3.40;0.87;;;16.30;99.90;;;;;;4990266;28;20316;-63
2021/10/12 11:56:32;;;;;;;4.63;1.00;;;16.10;99.90;;;;;;4982059;28;20237;-62
2021/10/12 11:59:02;;;;;;;6.20;0.90;;;15.90;99.90;;;;;;5000470;28;20236;-63
2021/10/12 12:01:31;;;;;;;4.83;1.13;;;15.60;99.90;;;;;;4990758;28;20721;-62
2021/10/12 12:04:00;;;;;;;3.03;0.80;;;15.50;99.90;;;;;;4992549;28;20607;-63
2021/10/12 12:06:29;;;;;;;4.13;0.80;;;15.50;99.90;;;;;;4973320;28;20229;-63
2021/10/12 12:09:02;;;;;;;2.83;0.70;;;15.50;99.90;;;;;;4992564;28;20505;-63
2021/10/12 12:11:31;;;;;;;4.07;0.70;;;15.40;99.90;;;;;;4979038;28;20249;-62
2021/10/12 12:14:03;;;;;;;3.20;1.07;;;15.40;99.90;;;;;;4994359;28;20248;-63
2021/10/12 12:16:34;;;;;;;3.83;0.97;;;15.40;99.90;;;;;;4978482;28;20236;-63
2021/10/12 12:19:19;;;;;;;3.80;1.00;;;15.50;99.90;;;;;;4994437;28;20890;-63
2021/10/12 12:21:48;;;;;;;3.10;0.80;;;15.70;99.90;;;;;;4989312;28;20291;-63
2021/10/12 12:24:24;;;;;;;4.97;0.83;;;15.60;99.90;;;;;;4992108;28;20237;-62
2021/10/12 12:27:03;;;;;;;1.90;0.80;;;15.50;99.90;;;;;;4981687;28;20243;-62
2021/10/12 12:29:32;;;;;;;3.87;0.80;;;15.50;99.90;;;;;;4991508;28;20298;-62
2021/10/12 12:32:00;;;;;;;2.43;0.60;;;15.10;99.90;;;;;;4992322;28;20581;-63
2021/10/12 12:34:31;;;;;;;0.90;0.70;;;14.60;99.90;;;;;;4978099;28;20234;-62
2021/10/12 12:37:01;;;;;;;1.30;0.50;;;14.40;99.90;;;;;;4984303;28;20248;-63
2021/10/12 12:39:41;;;;;;;0.80;0.50;;;14.10;99.90;;;;;;4986748;28;20597;-62
2021/10/12 12:42:29;;;;;;;1.97;0.50;;;13.80;99.90;;;;;;4984937;28;20238;-63
2021/10/12 12:45:09;;;;;;;2.83;0.50;;;13.80;99.90;;;;;;4987389;28;20551;-63
2021/10/12 12:47:38;;;;;;;2.27;0.60;;;13.70;99.90;;;;;;4982843;28;20644;-63
2021/10/12 12:50:10;;;;;;;2.27;0.60;;;13.60;99.90;;;;;;4987998;28;20746;-63
2021/10/12 12:52:39;;;;;;;2.17;0.63;;;13.50;99.90;;;;;;4985802;28;20324;-62
2021/10/12 12:55:29;;;;;;;1.50;0.63;;;13.60;99.90;;;;;;4991352;28;20975;-62
2021/10/12 12:57:57;;;;;;;4.20;0.87;;;13.70;99.90;;;;;;4988203;28;20338;-61
2021/10/12 13:00:26;;;;;;;2.90;0.53;;;13.90;99.90;;;;;;4990578;28;20240;-63
2021/10/12 13:02:54;;;;;;;2.63;0.70;;;13.90;99.90;;;;;;4989525;28;20300;-63
2021/10/12 13:05:23;;;;;;;2.20;0.80;;;13.80;99.90;;;;;;4994911;28;20631;-62
2021/10/12 13:07:53;;;;;;;1.47;0.50;;;14.00;99.90;;;;;;4990467;28;20550;-61